Time;durP1;ratioP1;P1;durP2;ratioP2;P2;SDS_P1;SDS_P2;PMS_P1;PMS_P2;Temp;Humidity;BMP_temperature;BMP_pressure;BME280_temperature;BME280_humidity;BME280_pressure;Samples;Min_cycle;Max_cycle;Signal;HPM_P1;HPM_P2
2024/01/29 00:02:10;;;;;;;3.00;2.05;;;;;;;;;;5033726;28;20045;-73
2024/01/29 00:04:35;;;;;;;2.78;1.80;;;;;;;;;;5030024;28;20036;-73
2024/01/29 00:07:00;;;;;;;2.80;2.08;;;;;;;;;;5032336;28;20489;-74
2024/01/29 00:09:25;;;;;;;2.65;1.98;;;;;;;;;;5028434;28;20033;-73
2024/01/29 00:11:51;;;;;;;3.40;2.00;;;;;;;;;;5028634;28;20040;-73
2024/01/29 00:14:16;;;;;;;2.72;1.90;;;;;;;;;;5026298;28;20503;-73
2024/01/29 00:16:42;;;;;;;2.45;1.90;;;;;;;;;;5028200;28;20141;-74
2024/01/29 00:19:07;;;;;;;2.45;1.95;;;;;;;;;;5028952;28;20033;-74
2024/01/29 00:21:32;;;;;;;3.80;2.30;;;;;;;;;;5030484;28;20116;-75
2024/01/29 00:24:00;;;;;;;2.92;1.90;;;;;;;;;;5034540;28;20032;-74
2024/01/29 00:26:25;;;;;;;2.45;1.90;;;;;;;;;;5028016;28;20413;-74
2024/01/29 00:28:51;;;;;;;2.92;2.10;;;;;;;;;;5027983;28;20044;-74
2024/01/29 00:31:16;;;;;;;2.38;1.95;;;;;;;;;;5028459;28;20053;-75
2024/01/29 00:33:42;;;;;;;3.20;2.00;;;;;;;;;;5028776;28;20374;-75
2024/01/29 00:36:07;;;;;;;2.85;1.92;;;;;;;;;;5028616;28;20361;-75
2024/01/29 00:38:32;;;;;;;2.40;1.80;;;;;;;;;;5031991;28;20042;-73
2024/01/29 00:40:58;;;;;;;3.03;2.13;;;;;;;;;;5018688;28;20037;-74
2024/01/29 00:43:23;;;;;;;3.00;1.98;;;;;;;;;;5037600;28;20114;-74
2024/01/29 00:45:48;;;;;;;3.50;2.05;;;;;;;;;;5027490;28;20034;-74
2024/01/29 00:48:14;;;;;;;2.35;1.95;;;;;;;;;;5028746;28;20107;-74
2024/01/29 00:50:39;;;;;;;3.35;2.08;;;;;;;;;;5029260;28;20519;-74
2024/01/29 00:53:05;;;;;;;2.42;2.03;;;;;;;;;;5027892;28;20037;-74
2024/01/29 00:55:31;;;;;;;2.67;1.83;;;;;;;;;;5030133;28;20124;-74
2024/01/29 00:57:56;;;;;;;2.70;2.13;;;;;;;;;;5027871;28;20474;-74
2024/01/29 01:00:21;;;;;;;2.83;2.08;;;;;;;;;;5030552;28;20067;-74
2024/01/29 01:02:47;;;;;;;2.58;1.83;;;;;;;;;;5027809;28;20511;-74
2024/01/29 01:05:12;;;;;;;3.10;2.35;;;;;;;;;;5029331;28;20132;-73
2024/01/29 01:07:37;;;;;;;2.58;2.03;;;;;;;;;;5032578;28;20041;-73
2024/01/29 01:10:03;;;;;;;2.40;1.70;;;;;;;;;;5027462;28;20041;-74
2024/01/29 01:12:29;;;;;;;2.80;2.03;;;;;;;;;;5029172;28;20026;-74
2024/01/29 01:14:54;;;;;;;2.90;2.03;;;;;;;;;;5031883;28;20281;-74
2024/01/29 01:17:19;;;;;;;2.75;1.95;;;;;;;;;;5034025;28;20044;-74
2024/01/29 01:19:44;;;;;;;3.28;1.77;;;;;;;;;;5030614;28;20028;-73
2024/01/29 01:22:13;;;;;;;3.33;2.20;;;;;;;;;;5031506;28;20493;-76
2024/01/29 01:24:38;;;;;;;2.83;1.75;;;;;;;;;;5030170;28;20491;-74
2024/01/29 01:27:04;;;;;;;2.33;1.80;;;;;;;;;;5031996;28;20120;-72
2024/01/29 01:29:29;;;;;;;3.17;2.10;;;;;;;;;;5019039;28;20029;-70
2024/01/29 01:31:54;;;;;;;4.22;2.00;;;;;;;;;;5038359;28;20529;-71
2024/01/29 01:34:20;;;;;;;2.47;1.90;;;;;;;;;;5029329;28;20021;-73
2024/01/29 01:36:45;;;;;;;2.90;2.05;;;;;;;;;;5028900;28;20396;-74
2024/01/29 01:39:10;;;;;;;2.95;2.22;;;;;;;;;;5029799;28;20072;-73
2024/01/29 01:41:35;;;;;;;2.97;2.15;;;;;;;;;;5027821;28;20022;-73
2024/01/29 01:44:01;;;;;;;3.85;2.15;;;;;;;;;;5028302;28;20370;-74
2024/01/29 01:46:26;;;;;;;2.55;1.83;;;;;;;;;;5032268;28;20105;-74
2024/01/29 01:48:52;;;;;;;3.35;2.10;;;;;;;;;;5030085;28;20559;-74
2024/01/29 01:51:21;;;;;;;2.65;1.63;;;;;;;;;;5017436;28;20029;-74
2024/01/29 01:53:46;;;;;;;2.65;1.85;;;;;;;;;;5028171;28;20052;-73
2024/01/29 01:56:12;;;;;;;3.00;2.00;;;;;;;;;;5032399;28;20025;-73
2024/01/29 01:58:40;;;;;;;2.25;1.83;;;;;;;;;;5031161;28;20479;-75
2024/01/29 02:01:05;;;;;;;3.15;2.10;;;;;;;;;;5027558;28;20489;-75
2024/01/29 02:03:30;;;;;;;3.00;2.08;;;;;;;;;;5027983;28;20025;-73
2024/01/29 02:05:56;;;;;;;2.00;1.80;;;;;;;;;;5026699;28;20036;-73
2024/01/29 02:08:21;;;;;;;2.63;1.90;;;;;;;;;;5021492;28;20017;-74
2024/01/29 02:10:46;;;;;;;2.78;2.00;;;;;;;;;;5026300;28;20025;-75
2024/01/29 02:13:12;;;;;;;2.38;1.85;;;;;;;;;;5019960;28;20028;-75
2024/01/29 02:15:37;;;;;;;2.78;1.95;;;;;;;;;;5031010;28;20021;-75
2024/01/29 02:18:03;;;;;;;2.25;1.80;;;;;;;;;;5029506;28;20037;-73
2024/01/29 02:20:29;;;;;;;2.60;2.08;;;;;;;;;;5018707;28;20075;-75
2024/01/29 02:22:54;;;;;;;2.40;2.00;;;;;;;;;;5037411;28;20032;-74
2024/01/29 02:25:20;;;;;;;2.90;1.77;;;;;;;;;;5030192;28;20029;-74
2024/01/29 02:27:45;;;;;;;2.83;1.85;;;;;;;;;;5029598;28;20104;-75
2024/01/29 02:30:11;;;;;;;2.20;1.70;;;;;;;;;;5035671;28;20049;-74
2024/01/29 02:32:36;;;;;;;2.38;1.70;;;;;;;;;;5050204;28;20022;-73
2024/01/29 02:35:02;;;;;;;2.88;2.03;;;;;;;;;;5051353;28;20040;-73
2024/01/29 02:37:27;;;;;;;2.92;1.80;;;;;;;;;;5053354;28;20041;-73
2024/01/29 02:39:52;;;;;;;2.00;1.80;;;;;;;;;;5049734;28;20081;-73
2024/01/29 02:42:18;;;;;;;2.47;1.80;;;;;;;;;;5041387;28;20029;-74
2024/01/29 02:44:43;;;;;;;2.72;2.00;;;;;;;;;;5032878;28;20045;-73
2024/01/29 02:47:09;;;;;;;2.45;1.90;;;;;;;;;;5030277;28;20098;-73
2024/01/29 02:49:34;;;;;;;2.08;1.67;;;;;;;;;;5032332;28;20846;-74
2024/01/29 02:52:00;;;;;;;2.72;2.10;;;;;;;;;;5034465;28;20068;-74
2024/01/29 02:54:26;;;;;;;2.42;1.90;;;;;;;;;;5030431;28;20033;-74
2024/01/29 02:56:51;;;;;;;2.63;1.90;;;;;;;;;;5030644;28;20073;-74
2024/01/29 02:59:16;;;;;;;3.05;2.03;;;;;;;;;;5031575;28;20058;-74
2024/01/29 03:01:42;;;;;;;2.70;1.98;;;;;;;;;;5032179;28;20043;-75
2024/01/29 03:04:07;;;;;;;2.92;1.88;;;;;;;;;;5046740;28;20048;-73
2024/01/29 03:06:33;;;;;;;2.80;1.60;;;;;;;;;;5048323;28;20045;-74
2024/01/29 03:08:58;;;;;;;2.40;1.80;;;;;;;;;;5048666;28;20124;-74
2024/01/29 03:11:23;;;;;;;3.25;2.05;;;;;;;;;;5046991;28;20033;-73
2024/01/29 03:13:49;;;;;;;2.78;1.88;;;;;;;;;;5038022;28;20040;-74
2024/01/29 03:16:14;;;;;;;2.40;1.88;;;;;;;;;;5033309;28;20099;-74
2024/01/29 03:18:39;;;;;;;2.17;1.45;;;;;;;;;;5030859;28;20041;-74
2024/01/29 03:21:05;;;;;;;2.58;1.90;;;;;;;;;;5027891;28;20111;-74
2024/01/29 03:23:30;;;;;;;3.63;2.15;;;;;;;;;;5031915;28;20080;-74
2024/01/29 03:25:55;;;;;;;2.53;1.80;;;;;;;;;;5031386;28;20073;-74
2024/01/29 03:28:21;;;;;;;2.70;1.75;;;;;;;;;;5029122;28;20029;-74
2024/01/29 03:30:46;;;;;;;2.97;2.08;;;;;;;;;;5029691;28;20040;-74
2024/01/29 03:33:11;;;;;;;2.20;1.80;;;;;;;;;;5002066;28;20049;-74
2024/01/29 03:35:37;;;;;;;2.70;2.00;;;;;;;;;;5030158;28;20041;-75
2024/01/29 03:38:02;;;;;;;3.05;2.20;;;;;;;;;;5021822;28;20042;-74
2024/01/29 03:40:28;;;;;;;2.40;1.60;;;;;;;;;;5019869;28;20033;-74
2024/01/29 03:42:53;;;;;;;2.30;1.67;;;;;;;;;;5025211;28;20417;-74
2024/01/29 03:45:18;;;;;;;2.22;1.70;;;;;;;;;;5030795;28;20041;-74
2024/01/29 03:47:43;;;;;;;2.67;1.90;;;;;;;;;;5030252;28;20033;-74
2024/01/29 03:50:09;;;;;;;3.00;1.83;;;;;;;;;;5029583;28;20116;-74
2024/01/29 03:52:35;;;;;;;2.30;1.65;;;;;;;;;;5020906;28;20240;-74
2024/01/29 03:55:01;;;;;;;2.35;1.90;;;;;;;;;;5030059;28;20047;-73
2024/01/29 03:57:26;;;;;;;2.40;1.77;;;;;;;;;;5022265;28;20167;-74
2024/01/29 03:59:54;;;;;;;2.13;1.52;;;;;;;;;;5029380;28;20048;-74
2024/01/29 04:02:20;;;;;;;2.60;1.70;;;;;;;;;;5020631;28;20508;-74
2024/01/29 04:04:47;;;;;;;2.45;1.85;;;;;;;;;;5037635;28;20044;-70
2024/01/29 04:07:12;;;;;;;2.42;1.60;;;;;;;;;;5034218;28;20033;-75
2024/01/29 04:09:38;;;;;;;2.50;1.60;;;;;;;;;;5029427;28;20040;-75
2024/01/29 04:12:03;;;;;;;2.85;2.08;;;;;;;;;;5032052;28;20513;-72
2024/01/29 04:14:29;;;;;;;2.33;1.77;;;;;;;;;;5015533;28;20043;-73
2024/01/29 04:16:54;;;;;;;2.45;1.77;;;;;;;;;;5031925;28;20052;-74
2024/01/29 04:19:20;;;;;;;2.22;1.73;;;;;;;;;;5028600;28;20047;-74
2024/01/29 04:21:45;;;;;;;2.40;1.60;;;;;;;;;;5013222;28;20052;-73
2024/01/29 04:24:10;;;;;;;2.47;1.67;;;;;;;;;;5012385;28;20038;-74
2024/01/29 04:26:36;;;;;;;2.35;1.52;;;;;;;;;;5028631;28;20091;-74
2024/01/29 04:29:01;;;;;;;2.70;1.70;;;;;;;;;;5021473;28;20052;-74
2024/01/29 04:31:26;;;;;;;2.70;1.67;;;;;;;;;;5031980;28;20041;-76
2024/01/29 04:33:52;;;;;;;2.17;1.75;;;;;;;;;;5028659;28;20107;-74
2024/01/29 04:36:17;;;;;;;2.22;1.60;;;;;;;;;;5032282;28;20046;-74
2024/01/29 04:38:45;;;;;;;2.42;1.90;;;;;;;;;;5028635;28;20041;-73
2024/01/29 04:41:20;;;;;;;2.60;1.80;;;;;;;;;;5028124;28;20068;-74
2024/01/29 04:43:45;;;;;;;2.58;1.75;;;;;;;;;;5028187;28;20082;-73
2024/01/29 04:46:11;;;;;;;2.58;1.88;;;;;;;;;;5025003;28;20530;-74
2024/01/29 04:48:37;;;;;;;2.92;1.83;;;;;;;;;;5028465;28;20032;-74
2024/01/29 04:51:06;;;;;;;2.10;1.60;;;;;;;;;;5032117;28;20538;-74
2024/01/29 04:53:31;;;;;;;3.17;2.00;;;;;;;;;;5023594;28;20025;-74
2024/01/29 04:55:56;;;;;;;2.50;1.73;;;;;;;;;;5028166;28;20087;-73
2024/01/29 04:58:22;;;;;;;2.50;1.52;;;;;;;;;;5029325;28;20041;-74
2024/01/29 05:00:47;;;;;;;2.08;1.67;;;;;;;;;;5027808;28;20515;-74
2024/01/29 05:03:12;;;;;;;3.33;1.85;;;;;;;;;;5028452;28;20052;-74
2024/01/29 05:05:38;;;;;;;2.13;1.60;;;;;;;;;;5027928;28;20033;-74
2024/01/29 05:08:03;;;;;;;2.67;1.55;;;;;;;;;;5028150;28;20048;-74
2024/01/29 05:10:28;;;;;;;2.22;1.55;;;;;;;;;;5027629;28;20099;-74
2024/01/29 05:12:54;;;;;;;2.53;1.73;;;;;;;;;;5027816;28;20061;-74
2024/01/29 05:15:19;;;;;;;2.47;1.80;;;;;;;;;;5027614;28;20112;-75
2024/01/29 05:17:44;;;;;;;2.80;1.70;;;;;;;;;;5021094;28;20040;-75
2024/01/29 05:20:11;;;;;;;2.17;1.40;;;;;;;;;;5028222;28;20033;-75
2024/01/29 05:22:36;;;;;;;2.10;1.70;;;;;;;;;;5027194;28;20072;-73
2024/01/29 05:25:02;;;;;;;2.13;1.45;;;;;;;;;;5028131;28;20038;-77
2024/01/29 05:27:27;;;;;;;2.30;1.63;;;;;;;;;;5024023;28;20037;-74
2024/01/29 05:29:53;;;;;;;2.28;1.42;;;;;;;;;;5001869;28;20041;-73
2024/01/29 05:32:19;;;;;;;2.60;1.70;;;;;;;;;;5028465;28;20028;-73
2024/01/29 05:34:45;;;;;;;1.67;1.40;;;;;;;;;;5035518;28;20037;-74
2024/01/29 05:37:10;;;;;;;2.20;1.60;;;;;;;;;;5028749;28;20037;-73
2024/01/29 05:39:35;;;;;;;2.05;1.52;;;;;;;;;;5026482;28;20075;-74
2024/01/29 05:42:00;;;;;;;2.50;1.67;;;;;;;;;;5026096;28;20037;-74
2024/01/29 05:44:26;;;;;;;1.83;1.45;;;;;;;;;;5031862;28;20029;-76
2024/01/29 05:46:51;;;;;;;1.90;1.35;;;;;;;;;;5010280;28;20036;-76
2024/01/29 05:49:18;;;;;;;2.38;1.52;;;;;;;;;;4994895;28;20068;-78
2024/01/29 05:51:43;;;;;;;3.42;1.60;;;;;;;;;;5007049;28;20033;-75
2024/01/29 05:54:09;;;;;;;2.28;1.50;;;;;;;;;;5020660;28;20099;-72
2024/01/29 05:56:34;;;;;;;2.35;1.55;;;;;;;;;;5015641;28;20040;-74
2024/01/29 05:58:59;;;;;;;3.03;1.50;;;;;;;;;;5037994;28;20128;-74
2024/01/29 06:01:24;;;;;;;2.42;1.40;;;;;;;;;;5026692;28;20106;-75
2024/01/29 06:03:50;;;;;;;2.45;1.60;;;;;;;;;;5031264;28;20038;-73
2024/01/29 06:06:15;;;;;;;1.83;1.50;;;;;;;;;;5030976;28;20367;-75
2024/01/29 06:08:41;;;;;;;3.00;1.60;;;;;;;;;;5032301;28;20025;-76
2024/01/29 06:11:06;;;;;;;2.40;1.70;;;;;;;;;;5031124;28;20424;-74
2024/01/29 06:13:31;;;;;;;1.80;1.48;;;;;;;;;;5031319;28;20034;-74
2024/01/29 06:15:58;;;;;;;2.33;1.80;;;;;;;;;;5031087;28;20047;-73
2024/01/29 06:18:23;;;;;;;2.15;1.55;;;;;;;;;;5032146;28;20037;-75
2024/01/29 06:20:49;;;;;;;2.17;1.40;;;;;;;;;;5030405;28;20497;-76
2024/01/29 06:23:14;;;;;;;2.28;1.40;;;;;;;;;;5033848;28;20052;-76
2024/01/29 06:25:40;;;;;;;2.53;1.40;;;;;;;;;;5031679;28;20029;-77
2024/01/29 06:28:07;;;;;;;2.63;1.58;;;;;;;;;;5034016;28;20037;-75
2024/01/29 06:30:33;;;;;;;2.00;1.55;;;;;;;;;;5034629;28;20041;-74
2024/01/29 06:32:58;;;;;;;2.30;1.80;;;;;;;;;;5033853;28;20061;-75
2024/01/29 06:35:24;;;;;;;2.78;1.70;;;;;;;;;;5032466;28;20525;-73
2024/01/29 06:37:49;;;;;;;2.05;1.35;;;;;;;;;;5041244;28;20046;-74
2024/01/29 06:40:15;;;;;;;2.20;1.70;;;;;;;;;;5033120;28;20153;-73
2024/01/29 06:42:40;;;;;;;2.95;1.52;;;;;;;;;;5049090;28;20593;-74
2024/01/29 06:45:07;;;;;;;4.72;1.65;;;;;;;;;;5034800;28;20047;-78
2024/01/29 06:47:32;;;;;;;2.95;1.60;;;;;;;;;;5027400;28;20056;-75
2024/01/29 06:49:58;;;;;;;2.22;1.50;;;;;;;;;;5032019;28;20501;-74
2024/01/29 06:52:24;;;;;;;2.38;1.63;;;;;;;;;;5019221;28;20513;-74
2024/01/29 06:54:50;;;;;;;2.42;1.58;;;;;;;;;;5025286;28;20022;-74
2024/01/29 06:57:15;;;;;;;2.92;1.30;;;;;;;;;;5012651;28;20243;-76
2024/01/29 06:59:40;;;;;;;3.38;1.63;;;;;;;;;;5030748;28;20056;-76
2024/01/29 07:02:07;;;;;;;2.35;1.50;;;;;;;;;;5031452;28;20046;-75
2024/01/29 07:04:32;;;;;;;2.63;1.80;;;;;;;;;;5014989;28;20409;-81
2024/01/29 07:06:59;;;;;;;2.78;1.50;;;;;;;;;;5024784;28;20155;-76
2024/01/29 07:09:24;;;;;;;2.80;1.58;;;;;;;;;;5032820;28;20584;-77
2024/01/29 07:11:49;;;;;;;2.55;1.65;;;;;;;;;;5026459;28;20054;-75
2024/01/29 07:14:15;;;;;;;2.75;1.60;;;;;;;;;;5033740;28;20045;-77
2024/01/29 07:16:40;;;;;;;3.15;1.67;;;;;;;;;;5025266;28;20586;-77
2024/01/29 07:19:05;;;;;;;2.92;1.60;;;;;;;;;;5029140;28;20528;-78
2024/01/29 07:21:31;;;;;;;2.40;1.40;;;;;;;;;;5025910;28;20045;-76
2024/01/29 07:23:56;;;;;;;2.00;1.42;;;;;;;;;;5003889;28;20037;-74
2024/01/29 07:26:22;;;;;;;3.10;1.80;;;;;;;;;;5028948;28;20072;-74
2024/01/29 07:28:47;;;;;;;2.53;1.60;;;;;;;;;;5012705;28;20481;-77
2024/01/29 07:31:12;;;;;;;2.55;1.67;;;;;;;;;;5026034;28;20033;-75
2024/01/29 07:33:38;;;;;;;5.80;2.03;;;;;;;;;;5022451;28;20033;-75
2024/01/29 07:36:03;;;;;;;6.50;1.92;;;;;;;;;;5031662;28;20033;-77
2024/01/29 07:38:31;;;;;;;6.53;2.10;;;;;;;;;;5035857;28;20099;-78
2024/01/29 07:40:56;;;;;;;7.32;2.38;;;;;;;;;;5030501;28;20519;-75
2024/01/29 07:43:21;;;;;;;9.10;2.38;;;;;;;;;;5029566;28;20037;-74
2024/01/29 07:45:46;;;;;;;6.70;2.42;;;;;;;;;;5032776;28;20107;-76
2024/01/29 07:48:12;;;;;;;13.32;2.90;;;;;;;;;;5032068;28;20067;-77
2024/01/29 07:50:37;;;;;;;10.43;2.38;;;;;;;;;;5032123;28;20037;-77
2024/01/29 07:53:03;;;;;;;9.43;2.30;;;;;;;;;;5020478;28;20033;-77
2024/01/29 07:55:29;;;;;;;6.25;2.08;;;;;;;;;;5042309;28;20037;-77
2024/01/29 07:57:54;;;;;;;7.50;2.30;;;;;;;;;;5035862;28;20108;-77
2024/01/29 08:00:42;;;;;;;6.75;2.17;;;;;;;;;;5035597;28;20079;-76
2024/01/29 08:03:07;;;;;;;10.20;2.80;;;;;;;;;;5031991;28;20058;-75
2024/01/29 08:05:34;;;;;;;6.68;2.30;;;;;;;;;;5011517;28;20139;-75
2024/01/29 08:08:00;;;;;;;10.65;2.80;;;;;;;;;;5034129;28;20037;-76
2024/01/29 08:10:25;;;;;;;9.13;2.28;;;;;;;;;;5025661;28;20198;-76
2024/01/29 08:12:50;;;;;;;7.55;2.20;;;;;;;;;;5048213;28;20358;-77
2024/01/29 08:15:16;;;;;;;8.32;2.55;;;;;;;;;;5048563;28;20025;-76
2024/01/29 08:17:41;;;;;;;10.82;2.50;;;;;;;;;;5048009;28;20073;-75
2024/01/29 08:20:07;;;;;;;11.23;2.53;;;;;;;;;;5044694;28;20034;-76
2024/01/29 08:22:32;;;;;;;10.98;2.97;;;;;;;;;;5047762;28;20045;-76
2024/01/29 08:24:58;;;;;;;9.52;2.55;;;;;;;;;;5051646;28;20488;-75
2024/01/29 08:27:23;;;;;;;6.18;2.38;;;;;;;;;;5043020;28;20037;-74
2024/01/29 08:29:48;;;;;;;7.32;2.38;;;;;;;;;;5034706;28;20583;-75
2024/01/29 08:32:14;;;;;;;7.82;2.22;;;;;;;;;;5031797;28;20044;-75
2024/01/29 08:34:39;;;;;;;6.50;2.50;;;;;;;;;;5030557;28;20540;-76
2024/01/29 08:37:05;;;;;;;10.00;2.47;;;;;;;;;;5036755;28;20045;-76
2024/01/29 08:39:30;;;;;;;8.20;2.53;;;;;;;;;;5018193;28;20228;-76
2024/01/29 08:41:56;;;;;;;6.85;2.65;;;;;;;;;;5023922;28;20072;-77
2024/01/29 08:44:21;;;;;;;8.40;2.53;;;;;;;;;;5019181;28;20037;-76
2024/01/29 08:46:46;;;;;;;6.53;2.22;;;;;;;;;;5029904;28;20139;-76
2024/01/29 08:49:15;;;;;;;6.10;2.25;;;;;;;;;;5038877;28;20056;-76
2024/01/29 08:51:40;;;;;;;6.47;2.22;;;;;;;;;;5032225;28;20034;-74
2024/01/29 08:54:05;;;;;;;6.57;2.53;;;;;;;;;;5009578;28;20037;-74
2024/01/29 08:56:31;;;;;;;6.00;2.58;;;;;;;;;;5028200;28;20057;-75
2024/01/29 08:58:58;;;;;;;7.78;2.75;;;;;;;;;;5016343;28;20036;-74
2024/01/29 09:01:23;;;;;;;7.18;2.33;;;;;;;;;;5025792;28;20110;-75
2024/01/29 09:04:02;;;;;;;7.63;2.63;;;;;;;;;;5031227;28;20124;-73
2024/01/29 09:06:28;;;;;;;7.68;2.60;;;;;;;;;;5010918;28;20021;-77
2024/01/29 09:08:53;;;;;;;8.70;2.97;;;;;;;;;;5041621;28;20025;-77
2024/01/29 09:11:18;;;;;;;6.47;2.33;;;;;;;;;;5033265;28;20025;-77
2024/01/29 09:13:44;;;;;;;7.15;2.83;;;;;;;;;;5047583;28;20029;-76
2024/01/29 09:16:09;;;;;;;7.40;2.55;;;;;;;;;;5043366;28;20072;-74
2024/01/29 09:18:34;;;;;;;7.57;2.10;;;;;;;;;;5032941;28;20629;-76
2024/01/29 09:21:00;;;;;;;8.50;2.58;;;;;;;;;;5049548;28;20013;-75
2024/01/29 09:23:29;;;;;;;8.00;2.50;;;;;;;;;;5049110;28;20041;-75
2024/01/29 09:25:55;;;;;;;10.50;2.90;;;;;;;;;;5030655;28;20048;-76
2024/01/29 09:28:21;;;;;;;5.80;2.67;;;;;;;;;;5030488;28;20033;-77
2024/01/29 09:30:46;;;;;;;7.20;2.70;;;;;;;;;;5033275;28;20151;-75
2024/01/29 09:33:11;;;;;;;5.13;2.20;;;;;;;;;;5027969;28;20093;-75
2024/01/29 09:35:37;;;;;;;5.90;2.53;;;;;;;;;;5028002;28;20033;-75
2024/01/29 09:38:02;;;;;;;6.65;2.55;;;;;;;;;;5027920;28;20041;-76
2024/01/29 09:40:28;;;;;;;6.50;2.72;;;;;;;;;;5029339;28;20029;-76
2024/01/29 09:42:54;;;;;;;7.35;2.40;;;;;;;;;;5033471;28;20022;-76
2024/01/29 09:45:23;;;;;;;5.47;2.17;;;;;;;;;;5052079;28;20133;-77
2024/01/29 09:47:49;;;;;;;8.98;2.38;;;;;;;;;;5051506;28;20064;-75
2024/01/29 09:50:14;;;;;;;4.13;2.38;;;;;;;;;;5045297;28;20045;-76
2024/01/29 09:52:40;;;;;;;5.50;2.22;;;;;;;;;;5046595;28;20033;-76
2024/01/29 09:55:05;;;;;;;7.78;2.47;;;;;;;;;;5024487;28;20041;-77
2024/01/29 09:57:31;;;;;;;5.88;2.40;;;;;;;;;;5029616;28;20496;-77
2024/01/29 09:59:56;;;;;;;4.82;2.30;;;;;;;;;;5011337;28;20068;-73
2024/01/29 10:02:21;;;;;;;6.60;2.28;;;;;;;;;;5025193;28;20044;-75
2024/01/29 10:04:47;;;;;;;5.80;2.30;;;;;;;;;;5034945;28;20057;-77
2024/01/29 10:07:12;;;;;;;5.20;2.25;;;;;;;;;;5027222;28;20030;-74
2024/01/29 10:09:37;;;;;;;4.63;2.10;;;;;;;;;;5029999;28;20113;-74
2024/01/29 10:12:03;;;;;;;6.75;2.35;;;;;;;;;;5027916;28;20045;-73
2024/01/29 10:14:28;;;;;;;5.40;2.20;;;;;;;;;;5028844;28;20028;-74
2024/01/29 10:16:54;;;;;;;6.05;2.08;;;;;;;;;;5015854;28;20041;-73
2024/01/29 10:19:19;;;;;;;5.60;2.20;;;;;;;;;;5031144;28;20041;-74
2024/01/29 10:21:45;;;;;;;4.30;1.83;;;;;;;;;;5028442;28;20394;-74
2024/01/29 10:24:14;;;;;;;4.53;2.10;;;;;;;;;;5026095;28;20436;-75
2024/01/29 10:26:42;;;;;;;5.13;2.35;;;;;;;;;;5027733;28;20076;-75
2024/01/29 10:29:09;;;;;;;4.18;2.03;;;;;;;;;;5032060;28;20505;-74
2024/01/29 10:31:34;;;;;;;4.72;2.10;;;;;;;;;;5027258;28;20072;-77
2024/01/29 10:33:59;;;;;;;3.67;1.98;;;;;;;;;;5031654;28;20037;-77
2024/01/29 10:36:25;;;;;;;6.57;2.13;;;;;;;;;;5028266;28;20080;-77
2024/01/29 10:38:52;;;;;;;4.50;2.00;;;;;;;;;;5032486;28;20030;-77
2024/01/29 10:41:17;;;;;;;4.55;2.20;;;;;;;;;;5035236;28;20053;-77
2024/01/29 10:43:50;;;;;;;4.65;2.05;;;;;;;;;;5032423;28;20033;-77
2024/01/29 10:46:22;;;;;;;4.13;1.90;;;;;;;;;;5013440;28;20053;-77
2024/01/29 10:48:48;;;;;;;5.57;2.10;;;;;;;;;;5031272;28;20041;-74
2024/01/29 10:51:13;;;;;;;5.30;2.00;;;;;;;;;;5031845;28;20331;-75
2024/01/29 10:53:40;;;;;;;4.22;2.10;;;;;;;;;;5031271;28;20385;-75
2024/01/29 10:56:05;;;;;;;4.32;2.33;;;;;;;;;;5030279;28;20116;-75
2024/01/29 10:58:30;;;;;;;3.88;2.45;;;;;;;;;;5010044;28;20577;-76
2024/01/29 11:00:56;;;;;;;4.07;2.30;;;;;;;;;;5014153;28;20036;-73
2024/01/29 11:03:21;;;;;;;5.07;2.33;;;;;;;;;;5026227;28;20057;-74
2024/01/29 11:05:51;;;;;;;3.53;1.92;;;;;;;;;;5032318;28;20042;-78
2024/01/29 11:08:19;;;;;;;4.85;2.60;;;;;;;;;;5012809;28;20528;-77
2024/01/29 11:10:44;;;;;;;4.05;2.55;;;;;;;;;;5004262;28;20041;-81
2024/01/29 11:13:09;;;;;;;3.88;2.55;;;;;;;;;;5007219;28;20185;-73
2024/01/29 11:15:35;;;;;;;4.57;2.55;;;;;;;;;;5031071;28;20040;-74
2024/01/29 11:18:00;;;;;;;4.47;2.53;;;;;;;;;;5030137;28;20080;-74
2024/01/29 11:20:26;;;;;;;4.55;2.65;;;;;;;;;;5014038;28;20037;-80
2024/01/29 11:22:52;;;;;;;5.88;2.72;;;;;;;;;;5031522;28;20053;-75
2024/01/29 11:25:17;;;;;;;3.60;2.38;;;;;;;;;;5033041;28;20124;-75
2024/01/29 11:27:44;;;;;;;4.85;2.60;;;;;;;;;;5045063;28;20037;-75
2024/01/29 11:30:13;;;;;;;4.25;2.53;;;;;;;;;;5031470;28;20124;-75
2024/01/29 11:32:40;;;;;;;4.47;2.83;;;;;;;;;;5034374;28;20033;-76
2024/01/29 11:35:18;;;;;;;4.85;2.70;;;;;;;;;;5015466;28;20069;-75
2024/01/29 11:37:44;;;;;;;5.65;2.80;;;;;;;;;;5034711;28;20033;-76
2024/01/29 11:40:28;;;;;;;6.05;3.17;;;;;;;;;;5036333;28;20033;-75
2024/01/29 11:42:53;;;;;;;5.60;2.85;;;;;;;;;;5041416;28;20033;-78
2024/01/29 11:45:18;;;;;;;4.75;2.75;;;;;;;;;;5056977;28;20022;-82
2024/01/29 11:47:43;;;;;;;4.47;2.60;;;;;;;;;;5007615;28;20026;-78
2024/01/29 11:50:09;;;;;;;4.82;2.75;;;;;;;;;;5033966;28;20123;-75
2024/01/29 11:52:34;;;;;;;4.80;3.00;;;;;;;;;;5029147;28;20037;-74
2024/01/29 11:55:00;;;;;;;4.57;2.75;;;;;;;;;;5030943;28;20399;-76
2024/01/29 11:57:25;;;;;;;5.30;2.90;;;;;;;;;;5038859;28;20351;-76
2024/01/29 11:59:50;;;;;;;4.18;2.60;;;;;;;;;;5036325;28;20098;-76
2024/01/29 12:02:16;;;;;;;5.45;2.58;;;;;;;;;;5036729;28;20041;-75
2024/01/29 12:04:41;;;;;;;3.90;2.90;;;;;;;;;;5030943;28;20057;-75
2024/01/29 12:07:06;;;;;;;4.40;2.55;;;;;;;;;;5039108;28;20513;-76
2024/01/29 12:09:33;;;;;;;4.10;2.85;;;;;;;;;;5028772;28;20048;-75
2024/01/29 12:11:58;;;;;;;4.20;2.63;;;;;;;;;;5034913;28;20041;-75
2024/01/29 12:14:24;;;;;;;3.88;2.50;;;;;;;;;;5030135;28;20092;-75
2024/01/29 12:16:49;;;;;;;4.82;3.00;;;;;;;;;;5039534;28;20424;-75
2024/01/29 12:19:14;;;;;;;4.05;2.45;;;;;;;;;;5030486;28;20040;-75
2024/01/29 12:21:41;;;;;;;3.72;2.35;;;;;;;;;;5031175;28;20025;-76
2024/01/29 12:24:08;;;;;;;4.68;2.72;;;;;;;;;;5029786;28;20046;-75
2024/01/29 12:26:34;;;;;;;4.32;2.45;;;;;;;;;;5014178;28;20045;-75
2024/01/29 12:29:00;;;;;;;3.90;2.42;;;;;;;;;;5049536;28;20338;-76
2024/01/29 12:31:25;;;;;;;4.38;2.80;;;;;;;;;;5036424;28;20114;-76
2024/01/29 12:33:51;;;;;;;3.40;2.45;;;;;;;;;;5031326;28;20022;-75
2024/01/29 12:36:16;;;;;;;4.32;2.67;;;;;;;;;;5031410;28;20603;-75
2024/01/29 12:38:43;;;;;;;3.40;2.55;;;;;;;;;;5030475;28;20095;-75
2024/01/29 12:41:09;;;;;;;4.82;2.40;;;;;;;;;;5032601;28;20086;-75
2024/01/29 12:43:34;;;;;;;3.63;2.50;;;;;;;;;;5013297;28;20049;-75
2024/01/29 12:46:09;;;;;;;4.47;2.67;;;;;;;;;;5029621;28;20045;-75
2024/01/29 12:48:34;;;;;;;3.88;2.70;;;;;;;;;;5045537;28;20041;-74
2024/01/29 12:50:59;;;;;;;3.15;2.70;;;;;;;;;;5029466;28;20028;-75
2024/01/29 12:53:25;;;;;;;3.35;2.22;;;;;;;;;;4992275;28;20104;-75
2024/01/29 12:55:50;;;;;;;4.45;2.78;;;;;;;;;;5029429;28;20014;-76
2024/01/29 12:58:16;;;;;;;5.03;2.40;;;;;;;;;;5030305;28;20107;-75
2024/01/29 13:00:43;;;;;;;3.25;2.40;;;;;;;;;;5030719;28;20035;-73
2024/01/29 13:03:08;;;;;;;3.00;2.30;;;;;;;;;;5017822;28;20116;-76
2024/01/29 13:05:35;;;;;;;3.40;2.15;;;;;;;;;;5030585;28;20365;-75
2024/01/29 13:08:01;;;;;;;4.03;2.60;;;;;;;;;;5012786;28;20079;-75
2024/01/29 13:10:28;;;;;;;4.00;2.58;;;;;;;;;;5031045;28;20026;-76
2024/01/29 13:12:54;;;;;;;3.33;2.33;;;;;;;;;;5029587;28;20017;-76
2024/01/29 13:15:19;;;;;;;4.45;2.45;;;;;;;;;;5030802;28;20474;-75
2024/01/29 13:17:44;;;;;;;3.33;2.30;;;;;;;;;;5029647;28;20072;-75
2024/01/29 13:20:13;;;;;;;3.58;2.13;;;;;;;;;;5029970;28;20017;-75
2024/01/29 13:22:38;;;;;;;3.70;2.40;;;;;;;;;;5035653;28;20106;-75
2024/01/29 13:25:05;;;;;;;3.45;2.28;;;;;;;;;;5012272;28;20085;-76
2024/01/29 13:27:32;;;;;;;2.90;2.20;;;;;;;;;;5029073;28;20040;-74
2024/01/29 13:29:58;;;;;;;3.17;2.03;;;;;;;;;;5020523;28;20025;-76
2024/01/29 13:32:24;;;;;;;2.95;2.05;;;;;;;;;;5014097;28;20110;-76
2024/01/29 13:34:49;;;;;;;3.33;2.15;;;;;;;;;;5012738;28;20041;-75
2024/01/29 13:37:15;;;;;;;2.97;1.92;;;;;;;;;;5031789;28;20333;-74
2024/01/29 13:39:40;;;;;;;3.03;2.10;;;;;;;;;;5041444;28;20025;-75
2024/01/29 13:42:07;;;;;;;3.50;2.20;;;;;;;;;;5045926;28;20026;-75
2024/01/29 13:44:37;;;;;;;3.75;1.98;;;;;;;;;;5038522;28;20022;-76
2024/01/29 13:47:03;;;;;;;2.95;1.92;;;;;;;;;;5030868;28;20136;-76
2024/01/29 13:49:32;;;;;;;3.38;2.28;;;;;;;;;;5044211;28;20033;-75
2024/01/29 13:51:59;;;;;;;2.78;2.10;;;;;;;;;;5049669;28;20046;-75
2024/01/29 13:54:27;;;;;;;2.45;1.80;;;;;;;;;;5048483;28;20038;-75
2024/01/29 13:56:53;;;;;;;3.13;1.58;;;;;;;;;;5047444;28;20049;-75
2024/01/29 13:59:20;;;;;;;2.72;1.98;;;;;;;;;;5049557;28;20167;-73
2024/01/29 14:01:47;;;;;;;3.20;1.83;;;;;;;;;;5054473;28;20044;-75
2024/01/29 14:04:13;;;;;;;2.83;1.90;;;;;;;;;;5051673;28;20103;-75
2024/01/29 14:06:54;;;;;;;2.78;1.80;;;;;;;;;;5045581;28;20025;-73
2024/01/29 14:09:19;;;;;;;2.83;1.92;;;;;;;;;;5046774;28;20033;-73
2024/01/29 14:11:45;;;;;;;2.88;1.70;;;;;;;;;;5051949;28;20048;-70
2024/01/29 14:14:16;;;;;;;2.88;1.92;;;;;;;;;;5050975;28;20028;-74
2024/01/29 14:16:41;;;;;;;2.30;1.70;;;;;;;;;;5051441;28;20041;-75
2024/01/29 14:19:06;;;;;;;2.33;1.63;;;;;;;;;;5031519;28;20035;-75
2024/01/29 14:21:32;;;;;;;2.50;1.77;;;;;;;;;;5024033;28;20080;-74
2024/01/29 14:23:57;;;;;;;2.55;1.90;;;;;;;;;;5029648;28;20041;-74
2024/01/29 14:26:23;;;;;;;2.58;1.60;;;;;;;;;;5030152;28;20033;-74
2024/01/29 14:28:49;;;;;;;2.00;1.60;;;;;;;;;;5047303;28;20044;-74
2024/01/29 14:31:14;;;;;;;2.03;1.60;;;;;;;;;;5049290;28;20037;-76
2024/01/29 14:33:40;;;;;;;3.00;1.70;;;;;;;;;;5049825;28;20045;-76
2024/01/29 14:36:06;;;;;;;2.85;2.03;;;;;;;;;;5034608;28;20053;-75